createdAt,value
2018-01-31T01:53:15.485Z,2.95
2018-01-31T01:55:44.806Z,2.93
2018-01-31T01:58:13.085Z,2.90
2018-01-31T02:00:41.379Z,2.83
2018-01-31T02:03:09.673Z,2.53
2018-01-31T02:05:38.005Z,2.80
2018-01-31T02:08:06.281Z,2.47
2018-01-31T02:10:34.557Z,3.20
2018-01-31T02:13:02.857Z,3.27
2018-01-31T02:15:31.117Z,2.10
2018-01-31T02:17:59.409Z,4.50
2018-01-31T02:20:27.674Z,2.23
2018-01-31T02:22:55.972Z,2.43
2018-01-31T02:25:24.247Z,2.20
2018-01-31T02:27:52.545Z,2.00
2018-01-31T02:30:20.806Z,2.20
2018-01-31T02:32:49.106Z,1.77
2018-01-31T02:35:17.399Z,1.70
2018-01-31T02:37:45.730Z,1.70
2018-01-31T02:40:16.834Z,1.97
2018-01-31T02:42:45.098Z,1.90
2018-01-31T02:45:13.430Z,2.40
2018-01-31T02:47:41.710Z,2.03
2018-01-31T02:50:09.988Z,2.00
2018-01-31T02:52:38.254Z,1.90
2018-01-31T02:55:06.535Z,2.37
2018-01-31T02:57:34.818Z,2.07
2018-01-31T03:00:03.119Z,1.90
2018-01-31T03:02:31.393Z,2.97
2018-01-31T03:04:59.682Z,1.60
2018-01-31T03:07:27.974Z,1.50
2018-01-31T03:09:56.243Z,1.50
2018-01-31T03:12:24.530Z,1.70
2018-01-31T03:14:52.788Z,1.63
2018-01-31T03:17:21.134Z,1.30
2018-01-31T03:19:49.406Z,1.40
2018-01-31T03:22:17.722Z,1.50
2018-01-31T03:24:45.995Z,1.10
2018-01-31T03:27:14.296Z,1.37
2018-01-31T03:29:42.554Z,1.50
2018-01-31T03:32:10.853Z,1.30
2018-01-31T03:34:39.167Z,1.60
2018-01-31T03:37:07.439Z,1.60
2018-01-31T03:39:35.729Z,1.30
2018-01-31T03:42:04.659Z,1.40
2018-01-31T03:44:32.951Z,1.10
2018-01-31T03:47:01.217Z,1.30
2018-01-31T03:49:29.535Z,1.12
2018-01-31T03:51:57.849Z,1.30
2018-01-31T03:54:26.125Z,1.30
2018-01-31T03:56:54.402Z,1.15
2018-01-31T03:59:22.681Z,1.60
2018-01-31T04:01:50.974Z,1.27
2018-01-31T04:04:19.230Z,1.30
2018-01-31T04:06:47.518Z,1.37
2018-01-31T04:09:15.778Z,1.40
2018-01-31T04:11:44.064Z,1.23
2018-01-31T04:14:12.333Z,2.10
2018-01-31T04:16:40.659Z,1.50
2018-01-31T04:19:08.951Z,1.10
2018-01-31T04:21:37.226Z,1.13
2018-01-31T04:24:05.517Z,1.27
2018-01-31T04:26:33.793Z,1.40
2018-01-31T04:29:02.095Z,1.83
2018-01-31T04:31:30.384Z,1.30
2018-01-31T04:33:58.667Z,1.20
2018-01-31T04:36:26.946Z,1.27
2018-01-31T04:38:55.343Z,1.30
2018-01-31T04:41:23.640Z,1.43
2018-01-31T04:43:51.926Z,1.47
2018-01-31T04:46:20.217Z,1.50
2018-01-31T04:48:48.492Z,1.40
2018-01-31T04:51:17.094Z,1.55
2018-01-31T04:53:45.368Z,1.37
2018-01-31T04:56:13.661Z,1.60
2018-01-31T04:58:41.911Z,1.37
2018-01-31T05:01:10.203Z,2.03
2018-01-31T05:03:39.364Z,1.52
2018-01-31T05:06:07.654Z,1.50
2018-01-31T05:08:36.034Z,1.43
2018-01-31T05:11:04.932Z,1.47
2018-01-31T05:13:33.248Z,1.53
2018-01-31T05:16:01.508Z,1.40
2018-01-31T05:18:29.795Z,1.80
2018-01-31T05:20:58.366Z,1.33
2018-01-31T05:23:26.662Z,1.40
2018-01-31T05:25:54.914Z,1.30
2018-01-31T05:28:23.196Z,1.60
2018-01-31T05:30:51.463Z,0.90
2018-01-31T05:33:19.746Z,1.10
2018-01-31T05:35:48.035Z,2.30
2018-01-31T05:38:16.316Z,1.42
2018-01-31T05:40:44.700Z,1.30
2018-01-31T05:43:12.967Z,1.53
2018-01-31T05:45:41.262Z,1.30
2018-01-31T05:48:09.553Z,1.40
2018-01-31T05:50:37.834Z,1.80
2018-01-31T05:53:06.115Z,1.30
2018-01-31T05:55:35.279Z,1.20
2018-01-31T05:58:03.569Z,1.30
2018-01-31T06:00:31.860Z,1.33
2018-01-31T06:03:00.140Z,1.20
2018-01-31T06:05:28.426Z,1.10
2018-01-31T06:07:56.690Z,1.30
2018-01-31T06:10:24.990Z,1.30
2018-01-31T06:12:53.275Z,1.50
2018-01-31T06:15:21.578Z,1.57
2018-01-31T06:17:49.870Z,1.30
2018-01-31T06:20:18.180Z,1.40
2018-01-31T06:22:46.531Z,1.60
2018-01-31T06:25:14.952Z,1.50
2018-01-31T06:27:43.255Z,1.63
2018-01-31T06:30:11.502Z,1.45
2018-01-31T06:32:40.184Z,1.70
2018-01-31T06:35:08.446Z,1.93
2018-01-31T06:37:36.819Z,2.10
2018-01-31T06:40:05.127Z,1.70
2018-01-31T06:42:34.288Z,1.90
2018-01-31T06:45:02.616Z,1.70
2018-01-31T06:47:30.884Z,2.00
2018-01-31T06:49:59.260Z,1.70
2018-01-31T06:52:27.540Z,2.13
2018-01-31T06:54:55.828Z,1.95
2018-01-31T06:57:24.507Z,1.53
2018-01-31T06:59:52.771Z,1.50
2018-01-31T07:02:21.039Z,1.50
2018-01-31T07:04:49.335Z,1.10
2018-01-31T07:07:17.801Z,1.40
2018-01-31T07:09:46.070Z,1.60
2018-01-31T07:12:14.370Z,1.50
2018-01-31T07:14:42.653Z,1.30
2018-01-31T07:17:10.901Z,1.03
2018-01-31T07:19:39.249Z,1.40
2018-01-31T07:22:07.533Z,1.80
2018-01-31T07:24:35.897Z,1.20
2018-01-31T07:27:04.500Z,1.30
2018-01-31T07:29:33.725Z,1.10
2018-01-31T07:32:05.025Z,1.13
2018-01-31T07:34:33.438Z,1.10
2018-01-31T07:37:01.728Z,0.97
2018-01-31T07:39:30.019Z,1.20
2018-01-31T07:41:58.370Z,1.30
2018-01-31T07:44:26.669Z,1.13
2018-01-31T07:46:54.980Z,0.80
2018-01-31T07:49:23.301Z,0.98
2018-01-31T07:51:51.584Z,1.00
2018-01-31T07:54:19.932Z,1.20
2018-01-31T07:56:48.383Z,1.40
2018-01-31T07:59:16.696Z,1.10
2018-01-31T08:01:44.960Z,1.20
2018-01-31T08:04:13.265Z,1.23
2018-01-31T08:06:43.613Z,1.10
2018-01-31T08:09:12.140Z,1.20
2018-01-31T08:11:40.443Z,0.97
2018-01-31T08:14:08.804Z,1.20
2018-01-31T08:16:37.079Z,1.30
2018-01-31T08:19:06.223Z,1.23
2018-01-31T08:21:34.558Z,1.43
2018-01-31T08:24:02.824Z,1.00
2018-01-31T08:26:31.953Z,1.20
2018-01-31T08:29:00.306Z,1.10
2018-01-31T08:31:28.613Z,1.30
2018-01-31T08:33:57.028Z,1.63
2018-01-31T08:36:25.387Z,1.40
2018-01-31T08:38:53.639Z,1.33
2018-01-31T08:41:21.931Z,1.40
2018-01-31T08:43:50.196Z,1.55
2018-01-31T08:46:18.673Z,1.83
2018-01-31T08:48:46.954Z,1.80
2018-01-31T08:51:15.229Z,2.22
2018-01-31T08:53:43.548Z,1.90
2018-01-31T08:56:11.924Z,2.08
2018-01-31T08:58:40.413Z,1.90
2018-01-31T09:01:08.872Z,1.87
2018-01-31T09:03:37.196Z,1.73
2018-01-31T09:06:05.475Z,1.80
2018-01-31T09:08:33.776Z,1.83
2018-01-31T09:11:02.060Z,1.58
2018-01-31T09:13:30.359Z,1.50
2018-01-31T09:15:58.653Z,2.80
2018-01-31T09:18:27.899Z,1.40
2018-01-31T09:20:56.200Z,2.00
2018-01-31T09:23:25.371Z,1.60
2018-01-31T09:25:53.673Z,1.60
2018-01-31T09:28:22.644Z,2.80
2018-01-31T09:30:50.926Z,1.80
2018-01-31T09:33:19.306Z,1.98
2018-01-31T09:35:47.590Z,2.23
2018-01-31T09:38:15.889Z,1.80
2018-01-31T09:40:45.675Z,1.77
2018-01-31T09:43:13.957Z,2.20
2018-01-31T09:45:42.363Z,2.23
2018-01-31T09:48:10.714Z,2.07
2018-01-31T09:50:39.541Z,1.90
2018-01-31T09:53:07.872Z,2.27
2018-01-31T09:55:36.147Z,1.63
2018-01-31T09:58:04.888Z,2.10
2018-01-31T10:00:33.214Z,2.00
2018-01-31T10:03:02.305Z,1.70
2018-01-31T10:05:30.594Z,2.20
2018-01-31T10:07:58.920Z,2.00
2018-01-31T10:10:27.227Z,2.80
2018-01-31T10:12:55.525Z,2.53
2018-01-31T10:15:23.871Z,1.90
2018-01-31T10:17:52.166Z,2.77
2018-01-31T10:20:20.456Z,2.30
2018-01-31T10:22:48.763Z,2.83
2018-01-31T10:25:17.088Z,1.55
2018-01-31T10:27:45.362Z,2.17
2018-01-31T10:30:14.459Z,2.25
2018-01-31T10:32:42.788Z,1.90
2018-01-31T10:35:11.131Z,1.70
2018-01-31T10:37:39.419Z,2.03
2018-01-31T10:40:07.689Z,1.80
2018-01-31T10:42:36.249Z,2.37
2018-01-31T10:45:05.086Z,2.43
2018-01-31T10:47:33.445Z,1.90
2018-01-31T10:50:01.721Z,2.00
2018-01-31T10:52:30.042Z,1.70
2018-01-31T10:57:28.576Z,2.00
2018-01-31T10:57:29.193Z,1.90
2018-01-31T10:59:54.926Z,1.90
2018-01-31T11:02:23.205Z,2.00
2018-01-31T11:04:51.546Z,1.70
2018-01-31T11:07:19.827Z,1.70
2018-01-31T11:09:48.135Z,1.83
2018-01-31T11:12:16.460Z,1.80
2018-01-31T11:14:44.834Z,1.73
2018-01-31T11:17:13.115Z,1.97
2018-01-31T11:19:41.406Z,1.80
2018-01-31T11:22:09.830Z,2.17
2018-01-31T11:24:38.072Z,1.30
2018-01-31T11:27:06.372Z,2.20
2018-01-31T11:29:34.728Z,1.63
2018-01-31T11:32:03.027Z,1.63
2018-01-31T11:34:31.370Z,1.90
2018-01-31T11:36:59.762Z,2.00
2018-01-31T11:39:28.783Z,2.17
2018-01-31T11:41:57.198Z,2.20
2018-01-31T11:44:25.940Z,1.80
2018-01-31T11:46:54.314Z,1.90
2018-01-31T11:49:23.675Z,1.58
2018-01-31T11:51:52.074Z,2.30
2018-01-31T11:54:20.454Z,2.10
2018-01-31T11:56:48.805Z,2.13
2018-01-31T11:59:17.106Z,2.00
2018-01-31T12:01:46.142Z,2.20
2018-01-31T12:04:14.496Z,2.30
2018-01-31T12:06:42.756Z,1.83
2018-01-31T12:12:10.285Z,2.10
2018-01-31T12:14:50.198Z,2.40
2018-01-31T12:17:18.484Z,2.42
2018-01-31T12:20:13.149Z,2.00
2018-01-31T12:22:53.082Z,2.57
2018-01-31T12:25:33.259Z,2.15
2018-01-31T12:28:13.391Z,2.23
2018-01-31T12:30:48.544Z,2.40
2018-01-31T12:33:28.574Z,2.33
2018-01-31T12:36:08.950Z,2.50
2018-01-31T12:38:48.986Z,2.50
2018-01-31T12:41:16.756Z,2.60
2018-01-31T12:43:44.583Z,2.90
2018-01-31T12:46:24.610Z,2.35
2018-01-31T12:52:13.572Z,2.70
2018-01-31T12:54:53.780Z,3.10
2018-01-31T12:57:30.922Z,3.12
2018-01-31T13:00:11.159Z,5.07
2018-01-31T13:05:52.350Z,3.50
2018-01-31T13:08:32.551Z,3.40
2018-01-31T13:14:14.541Z,4.43
2018-01-31T13:16:54.641Z,3.30
2018-01-31T13:19:34.728Z,3.83
2018-01-31T13:25:27.723Z,2.87
2018-01-31T13:28:13.613Z,3.60
2018-01-31T13:30:49.478Z,2.57
2018-01-31T13:33:29.598Z,3.10
2018-01-31T13:36:09.661Z,3.10
2018-01-31T13:38:49.604Z,3.10
2018-01-31T13:41:29.671Z,4.37
2018-01-31T13:44:06.652Z,3.03
2018-01-31T13:46:46.695Z,2.73
2018-01-31T13:52:29.638Z,3.87
2018-01-31T13:55:09.548Z,3.03
2018-01-31T13:57:49.782Z,2.73
2018-01-31T14:00:29.891Z,4.30
2018-01-31T14:03:10.051Z,3.20
2018-01-31T14:05:50.305Z,3.00
2018-01-31T14:08:30.320Z,3.00
2018-01-31T14:11:10.574Z,2.27
2018-01-31T14:13:50.566Z,2.57
2018-01-31T14:16:30.729Z,3.20
2018-01-31T14:19:10.696Z,2.60
2018-01-31T14:21:50.653Z,3.60
2018-01-31T14:24:30.575Z,3.07
2018-01-31T14:27:10.843Z,2.97
2018-01-31T14:29:50.754Z,2.53
2018-01-31T14:35:33.411Z,2.83
2018-01-31T14:38:01.284Z,2.60
2018-01-31T14:40:28.996Z,3.77
2018-01-31T14:42:56.783Z,2.43
2018-01-31T14:45:24.648Z,2.40
2018-01-31T14:47:52.407Z,1.83
2018-01-31T14:50:20.200Z,2.70
2018-01-31T14:52:48.001Z,2.50
2018-01-31T14:55:15.731Z,2.45
2018-01-31T14:57:43.488Z,2.90
2018-01-31T15:00:11.319Z,3.12
2018-01-31T15:02:39.123Z,2.63
2018-01-31T15:05:07.522Z,4.00
2018-01-31T15:07:35.290Z,3.30
2018-01-31T15:10:04.159Z,2.22
2018-01-31T15:12:31.929Z,3.10
2018-01-31T15:15:00.684Z,3.33
2018-01-31T15:17:28.420Z,3.13
2018-01-31T15:19:56.231Z,3.90
2018-01-31T15:22:24.005Z,3.33
2018-01-31T15:24:51.740Z,2.47
2018-01-31T15:27:19.490Z,3.63
2018-01-31T15:29:47.391Z,2.47
2018-01-31T15:32:15.476Z,4.13
2018-01-31T15:34:43.242Z,3.67
2018-01-31T15:37:11.001Z,3.30
2018-01-31T15:39:38.799Z,3.70
2018-01-31T15:42:06.570Z,3.43
2018-01-31T15:44:34.988Z,3.47
2018-01-31T15:47:03.806Z,2.60
2018-01-31T15:49:31.591Z,3.40
2018-01-31T15:51:59.438Z,3.47
2018-01-31T15:54:27.190Z,2.87
2018-01-31T15:56:54.971Z,3.30
2018-01-31T15:59:22.942Z,3.10
2018-01-31T16:01:50.657Z,2.53
2018-01-31T16:04:18.526Z,2.40
2018-01-31T16:06:46.318Z,2.97
2018-01-31T16:09:14.086Z,2.40
2018-01-31T16:11:41.953Z,3.40
2018-01-31T16:14:09.669Z,3.20
2018-01-31T16:16:37.979Z,2.90
2018-01-31T16:22:05.146Z,2.60
2018-01-31T16:24:34.446Z,2.70
2018-01-31T16:27:02.898Z,2.70
2018-01-31T16:29:46.903Z,2.27
2018-01-31T16:32:26.919Z,2.50
2018-01-31T16:34:55.275Z,2.23
2018-01-31T16:37:23.671Z,2.42
2018-01-31T16:39:52.137Z,2.87
2018-01-31T16:42:20.590Z,2.30
2018-01-31T16:44:48.991Z,2.90
2018-01-31T16:47:17.384Z,2.80
2018-01-31T16:49:46.348Z,2.42
2018-01-31T16:52:14.801Z,2.85
2018-01-31T16:54:43.096Z,2.50
2018-01-31T16:57:11.400Z,2.30
2018-01-31T16:59:39.817Z,2.40
2018-01-31T17:02:08.199Z,3.47
2018-01-31T17:04:36.532Z,2.80
2018-01-31T17:07:04.952Z,2.65
2018-01-31T17:09:33.482Z,2.50
2018-01-31T17:12:01.796Z,2.37
2018-01-31T17:14:30.167Z,2.25
2018-01-31T17:16:58.482Z,2.40
2018-01-31T17:19:26.774Z,2.60
2018-01-31T17:21:56.304Z,2.30
2018-01-31T17:24:24.617Z,2.70
2018-01-31T17:26:53.012Z,2.83
2018-01-31T17:29:21.347Z,2.30
2018-01-31T17:31:51.341Z,2.17
2018-01-31T17:34:19.662Z,2.70
2018-01-31T17:36:48.005Z,2.70
2018-01-31T17:39:16.278Z,2.00
2018-01-31T17:41:45.435Z,2.90
2018-01-31T17:44:13.731Z,2.20
2018-01-31T17:46:42.863Z,2.10
2018-01-31T17:49:11.180Z,2.30
2018-01-31T17:51:39.512Z,2.10
2018-01-31T17:54:08.358Z,2.47
2018-01-31T17:56:36.742Z,2.03
2018-01-31T17:59:05.149Z,2.20
2018-01-31T18:01:33.546Z,2.37
2018-01-31T18:04:02.682Z,1.50
2018-01-31T18:06:31.093Z,1.77
2018-01-31T18:08:59.499Z,2.00
2018-01-31T18:11:27.750Z,2.40
2018-01-31T18:13:56.048Z,2.47
2018-01-31T18:16:24.324Z,2.40
2018-01-31T18:18:52.625Z,3.33
2018-01-31T18:21:21.747Z,1.90
2018-01-31T18:23:50.097Z,1.87
2018-01-31T18:26:19.186Z,2.13
2018-01-31T18:28:47.470Z,2.70
2018-01-31T18:31:15.923Z,2.25
2018-01-31T18:33:44.234Z,1.90
2018-01-31T18:36:12.523Z,2.00
2018-01-31T18:38:40.808Z,2.70
2018-01-31T18:41:09.811Z,1.87
2018-01-31T18:43:38.091Z,2.20
2018-01-31T18:46:06.419Z,1.80
2018-01-31T18:48:34.672Z,2.33
2018-01-31T18:51:03.002Z,2.83
2018-01-31T18:53:31.283Z,1.70
2018-01-31T18:55:59.576Z,1.70
2018-01-31T18:58:27.884Z,1.80
2018-01-31T19:00:56.205Z,1.97
2018-01-31T19:03:24.511Z,2.03
2018-01-31T19:05:54.022Z,2.90
2018-01-31T19:08:22.686Z,2.28
2018-01-31T19:10:51.025Z,1.83
2018-01-31T19:13:19.379Z,2.75
2018-01-31T19:15:47.676Z,2.33
2018-01-31T19:18:15.993Z,2.28
2018-01-31T19:20:45.777Z,2.17
2018-01-31T19:23:14.986Z,1.77
2018-01-31T19:25:43.318Z,1.60
2018-01-31T19:28:11.633Z,2.10
2018-01-31T19:30:39.968Z,1.48
2018-01-31T19:33:08.304Z,1.73
2018-01-31T19:35:36.570Z,1.47
2018-01-31T19:38:05.388Z,1.73
2018-01-31T19:40:33.692Z,1.40
2018-01-31T19:43:02.017Z,1.50
2018-01-31T19:45:30.312Z,2.85
2018-01-31T19:47:58.586Z,1.50
2018-01-31T19:50:26.872Z,1.80
2018-01-31T19:52:55.431Z,1.83
2018-01-31T19:55:23.762Z,2.35
2018-01-31T19:57:52.023Z,1.73
2018-01-31T20:00:20.362Z,4.57
2018-01-31T20:02:49.023Z,1.70
2018-01-31T20:05:17.426Z,1.62
2018-01-31T20:07:45.750Z,1.97
2018-01-31T20:10:14.262Z,2.40
2018-01-31T20:12:42.612Z,1.90
2018-01-31T20:15:11.046Z,1.27
2018-01-31T20:17:39.351Z,1.37
2018-01-31T20:20:07.654Z,0.70
2018-01-31T20:22:35.963Z,0.73
2018-01-31T20:25:04.598Z,1.20
2018-01-31T20:27:33.126Z,1.20
2018-01-31T20:30:01.425Z,1.80
2018-01-31T20:32:29.784Z,0.90
2018-01-31T20:34:59.041Z,1.00
2018-01-31T20:37:27.368Z,1.87
2018-01-31T20:39:55.790Z,0.80
2018-01-31T20:42:24.040Z,1.80
2018-01-31T20:44:52.339Z,1.10
2018-01-31T20:47:20.591Z,0.80
2018-01-31T20:49:48.945Z,1.10
2018-01-31T20:52:17.236Z,1.63
2018-01-31T20:54:45.559Z,1.00
2018-01-31T20:57:13.829Z,1.50
2018-01-31T20:59:42.174Z,1.10
2018-01-31T21:02:10.486Z,1.60
2018-01-31T21:04:38.810Z,0.90
2018-01-31T21:07:07.129Z,1.10
2018-01-31T21:09:35.444Z,1.00
2018-01-31T21:12:03.757Z,1.40
2018-01-31T21:14:32.028Z,1.00
2018-01-31T21:17:00.343Z,0.90
2018-01-31T21:19:28.673Z,1.13
2018-01-31T21:21:56.999Z,0.93
2018-01-31T21:24:25.283Z,1.10
2018-01-31T21:26:53.580Z,0.80
2018-01-31T21:29:21.877Z,0.90
2018-01-31T21:31:50.203Z,0.90
2018-01-31T21:34:18.480Z,1.07
2018-01-31T21:36:48.319Z,0.98
2018-01-31T21:39:16.606Z,1.20
2018-01-31T21:41:44.907Z,1.23
2018-01-31T21:44:13.208Z,1.20
2018-01-31T21:46:41.492Z,1.20
2018-01-31T21:49:09.778Z,1.50
2018-01-31T21:51:38.078Z,1.20
2018-01-31T21:54:06.374Z,1.30
2018-01-31T21:56:34.653Z,1.57
2018-01-31T21:59:02.981Z,1.10
2018-01-31T22:01:31.223Z,1.10
2018-01-31T22:03:59.476Z,1.30
2018-01-31T22:06:27.779Z,1.55
2018-01-31T22:08:56.067Z,1.80
2018-01-31T22:11:24.434Z,1.50
2018-01-31T22:13:52.737Z,1.90
2018-01-31T22:16:21.022Z,1.42
2018-01-31T22:18:49.293Z,1.87
2018-01-31T22:21:17.610Z,2.40
2018-01-31T22:23:45.897Z,1.70
2018-01-31T22:26:14.194Z,3.78
2018-01-31T22:28:43.013Z,1.50
2018-01-31T22:31:11.298Z,1.70
2018-01-31T22:33:39.602Z,1.53
2018-01-31T22:36:07.885Z,1.13
2018-01-31T22:38:36.181Z,1.10
2018-01-31T22:41:04.775Z,1.20
2018-01-31T22:43:33.125Z,1.30
2018-01-31T22:46:01.699Z,1.30
2018-01-31T22:48:29.978Z,1.63
2018-01-31T22:50:58.578Z,1.17
2018-01-31T22:53:26.844Z,1.13
2018-01-31T22:55:55.606Z,1.90
2018-01-31T22:58:25.147Z,1.30
2018-01-31T23:00:53.424Z,0.90
2018-01-31T23:03:21.732Z,0.60
2018-01-31T23:05:49.988Z,0.67
2018-01-31T23:08:18.329Z,0.70
2018-01-31T23:10:46.640Z,0.80
2018-01-31T23:13:18.560Z,0.80
2018-01-31T23:15:46.847Z,1.00
2018-01-31T23:18:19.001Z,0.80
2018-01-31T23:20:48.088Z,0.80
2018-01-31T23:23:16.392Z,0.70
2018-01-31T23:25:44.677Z,1.07
2018-01-31T23:28:12.979Z,0.90
2018-01-31T23:30:41.260Z,0.73
2018-01-31T23:33:09.843Z,0.68
2018-01-31T23:35:38.088Z,0.70
2018-01-31T23:38:06.370Z,0.60
2018-01-31T23:40:34.683Z,0.60
2018-01-31T23:43:02.939Z,0.88
2018-01-31T23:45:31.193Z,1.00
2018-01-31T23:47:59.456Z,1.10
2018-01-31T23:50:27.734Z,0.80
2018-01-31T23:52:56.015Z,1.15
2018-01-31T23:55:24.363Z,0.97
2018-01-31T23:57:52.582Z,0.60
